createdAt,value
2022-10-19T00:00:00.097Z,20.30
2022-10-19T00:03:30.098Z,23.70
2022-10-19T00:06:40.141Z,22.90
2022-10-19T00:09:50.141Z,19.90
2022-10-19T00:13:00.146Z,21.00
2022-10-19T00:16:09.237Z,20.90
2022-10-19T00:19:21.154Z,20.20
2022-10-19T00:22:35.421Z,23.30
2022-10-19T00:25:43.154Z,21.60
2022-10-19T00:28:50.259Z,27.70
2022-10-19T00:32:00.094Z,18.50
2022-10-19T00:35:10.182Z,19.50
2022-10-19T00:38:20.168Z,23.30
2022-10-19T00:41:30.188Z,20.50
2022-10-19T00:44:37.192Z,21.10
2022-10-19T00:47:47.230Z,21.10
2022-10-19T00:50:54.239Z,21.40
2022-10-19T00:54:04.239Z,20.10
2022-10-19T00:57:11.233Z,20.10
2022-10-19T01:00:18.235Z,20.00
2022-10-19T01:03:28.237Z,21.00
2022-10-19T01:06:35.313Z,21.30
2022-10-19T01:09:45.266Z,18.60
2022-10-19T01:12:55.309Z,19.60
2022-10-19T01:16:02.301Z,19.60
2022-10-19T01:19:12.632Z,17.80
2022-10-19T01:22:20.300Z,16.90
2022-10-19T01:25:27.310Z,20.10
2022-10-19T01:28:34.372Z,17.80
2022-10-19T01:31:44.336Z,19.10
2022-10-19T01:34:54.302Z,19.20
2022-10-19T01:38:01.325Z,17.50
2022-10-19T01:41:11.394Z,19.40
2022-10-19T01:44:21.347Z,17.30
2022-10-19T01:47:31.663Z,19.20
2022-10-19T01:50:39.390Z,21.80
2022-10-19T01:53:49.356Z,17.40
2022-10-19T01:56:56.337Z,17.40
2022-10-19T02:00:03.370Z,16.00
2022-10-19T02:03:13.398Z,16.30
2022-10-19T02:06:20.423Z,17.10
2022-10-19T02:09:30.410Z,14.20
2022-10-19T02:12:37.408Z,19.80
2022-10-19T02:15:45.476Z,17.60
2022-10-19T02:18:55.449Z,17.10
2022-10-19T02:22:02.423Z,19.10
2022-10-19T02:25:09.455Z,20.50
2022-10-19T02:28:22.445Z,19.10
2022-10-19T02:31:32.488Z,18.90
2022-10-19T02:34:42.534Z,18.40
2022-10-19T02:37:49.425Z,19.00
2022-10-19T02:40:56.474Z,21.20
2022-10-19T02:44:03.611Z,17.50
2022-10-19T02:47:13.504Z,16.30
2022-10-19T02:50:23.560Z,19.70
2022-10-19T02:53:33.508Z,18.70
2022-10-19T02:56:40.517Z,17.50
2022-10-19T02:59:50.470Z,17.80
2022-10-19T03:02:57.518Z,22.60
2022-10-19T03:06:07.539Z,19.30
2022-10-19T03:09:14.530Z,18.80
2022-10-19T03:12:21.510Z,16.80
2022-10-19T03:15:28.568Z,17.40
2022-10-19T03:18:38.752Z,19.30
2022-10-19T03:21:48.539Z,16.00
2022-10-19T03:24:58.595Z,19.70
2022-10-19T03:28:05.622Z,17.00
2022-10-19T03:31:15.563Z,17.30
2022-10-19T03:34:22.611Z,19.30
2022-10-19T03:37:33.070Z,20.10
2022-10-19T03:40:40.625Z,13.80
2022-10-19T03:43:47.593Z,17.00
2022-10-19T03:46:54.620Z,15.90
2022-10-19T03:50:01.665Z,21.40
2022-10-19T03:53:14.615Z,13.90
2022-10-19T03:56:24.699Z,15.90
2022-10-19T03:59:31.661Z,16.70
2022-10-19T04:02:41.705Z,16.80
2022-10-19T04:05:51.716Z,12.80
2022-10-19T04:09:01.756Z,19.10
2022-10-19T04:12:11.716Z,16.90
2022-10-19T04:15:25.719Z,13.60
2022-10-19T04:18:35.853Z,19.90
2022-10-19T04:21:45.806Z,17.70
2022-10-19T04:24:57.728Z,16.80
2022-10-19T04:28:07.793Z,17.60
2022-10-19T04:31:19.777Z,18.70
2022-10-19T04:34:26.743Z,14.70
2022-10-19T04:37:33.966Z,14.50
2022-10-19T04:40:41.814Z,15.30
2022-10-19T04:43:51.879Z,18.50
2022-10-19T04:47:01.856Z,17.10
2022-10-19T04:50:11.887Z,17.90
2022-10-19T04:53:21.780Z,18.80
2022-10-19T04:56:29.851Z,19.10
2022-10-19T04:59:39.838Z,18.90
2022-10-19T05:02:46.828Z,22.00
2022-10-19T05:05:56.869Z,19.00
2022-10-19T05:09:09.837Z,18.80
2022-10-19T05:12:16.837Z,15.20
2022-10-19T05:15:23.984Z,25.10
2022-10-19T05:18:34.908Z,19.40
2022-10-19T05:21:41.893Z,18.00
2022-10-19T05:24:48.860Z,21.90
2022-10-19T05:27:55.939Z,17.30
2022-10-19T05:31:08.906Z,15.60
2022-10-19T05:34:15.894Z,18.10
2022-10-19T05:37:22.972Z,18.40
2022-10-19T05:40:33.969Z,21.50
2022-10-19T05:43:40.910Z,18.30
2022-10-19T05:46:47.958Z,26.70
2022-10-19T05:49:55.021Z,20.90
2022-10-19T05:53:04.965Z,22.20
2022-10-19T05:56:18.914Z,18.20
2022-10-19T05:59:25.959Z,23.00
2022-10-19T06:02:32.996Z,22.50
2022-10-19T06:05:40.094Z,54.50
2022-10-19T06:08:50.004Z,61.00
2022-10-19T06:11:56.970Z,35.70
2022-10-19T06:15:04.017Z,25.70
2022-10-19T06:18:13.998Z,23.70
2022-10-19T06:21:24.016Z,22.10
2022-10-19T06:24:31.073Z,16.00
2022-10-19T06:27:42.035Z,27.50
2022-10-19T06:30:52.067Z,17.90
2022-10-19T06:34:02.126Z,18.40
2022-10-19T06:37:09.132Z,18.10
2022-10-19T06:40:19.244Z,20.20
2022-10-19T06:43:27.110Z,19.00
2022-10-19T06:46:34.051Z,17.80
2022-10-19T06:49:41.153Z,21.70
2022-10-19T06:52:51.113Z,19.70
2022-10-19T06:56:01.174Z,20.30
2022-10-19T06:59:08.114Z,18.20
2022-10-19T07:02:15.187Z,17.90
2022-10-19T07:05:25.325Z,26.10
2022-10-19T07:08:35.152Z,18.70
2022-10-19T07:11:46.260Z,19.00
2022-10-19T07:14:54.166Z,19.30
2022-10-19T07:18:01.199Z,15.10
2022-10-19T07:21:08.174Z,19.50
2022-10-19T07:24:15.202Z,16.70
2022-10-19T07:27:25.196Z,28.30
2022-10-19T07:30:32.192Z,19.60
2022-10-19T07:33:39.235Z,18.70
2022-10-19T07:36:49.349Z,16.50
2022-10-19T07:39:56.407Z,21.70
2022-10-19T07:43:07.265Z,23.00
2022-10-19T07:46:17.255Z,14.80
2022-10-19T07:49:24.161Z,15.30
2022-10-19T07:52:33.116Z,17.10
2022-10-19T07:55:44.339Z,15.70
2022-10-19T08:02:30.949Z,16.90
2022-10-19T08:09:07.569Z,15.60
2022-10-19T08:12:44.388Z,16.50
2022-10-19T08:15:57.511Z,19.10
2022-10-19T08:19:08.346Z,15.10
2022-10-19T08:22:22.489Z,18.30
2022-10-19T08:25:29.415Z,18.10
2022-10-19T08:28:59.498Z,15.40
2022-10-19T08:32:09.492Z,16.00
2022-10-19T08:35:16.335Z,14.40
2022-10-19T08:38:29.422Z,13.30
2022-10-19T08:41:42.485Z,19.10
2022-10-19T08:44:52.645Z,14.30
2022-10-19T08:48:05.462Z,15.40
2022-10-19T08:51:15.371Z,15.30
2022-10-19T08:54:26.498Z,10.60
2022-10-19T08:57:57.196Z,11.00
2022-10-19T09:01:09.439Z,10.60
2022-10-19T09:05:26.834Z,9.40
2022-10-19T09:09:29.041Z,13.40
2022-10-19T09:12:56.364Z,11.10
2022-10-19T09:16:29.438Z,13.70
2022-10-19T09:23:19.561Z,14.80
2022-10-19T09:30:56.706Z,13.90
2022-10-19T09:37:57.647Z,11.20
2022-10-19T09:41:11.983Z,12.50
2022-10-19T09:44:22.553Z,13.10
2022-10-19T09:47:33.010Z,11.00
2022-10-19T09:50:40.513Z,11.90
2022-10-19T09:53:47.595Z,11.20
2022-10-19T09:56:55.688Z,11.90
2022-10-19T10:00:05.671Z,11.20
2022-10-19T10:03:17.630Z,12.90
2022-10-19T10:06:28.719Z,11.00
2022-10-19T10:09:44.578Z,10.80
2022-10-19T10:12:51.712Z,11.50
2022-10-19T10:16:02.697Z,10.90
2022-10-19T10:19:13.846Z,12.30
2022-10-19T10:22:24.642Z,12.40
2022-10-19T10:25:34.613Z,13.50
2022-10-19T10:28:44.664Z,23.00
2022-10-19T10:31:54.640Z,13.40
2022-10-19T10:35:11.704Z,12.00
2022-10-19T10:38:21.605Z,14.40
2022-10-19T10:41:28.723Z,13.60
2022-10-19T10:44:38.710Z,11.00
2022-10-19T10:47:48.633Z,8.40
2022-10-19T10:50:55.708Z,10.40
2022-10-19T10:54:02.778Z,9.40
2022-10-19T10:57:09.842Z,7.90
2022-10-19T11:00:17.805Z,6.20
2022-10-19T11:03:27.771Z,8.60
2022-10-19T11:06:39.617Z,10.20
2022-10-19T11:09:49.737Z,8.70
2022-10-19T11:12:56.730Z,5.90
2022-10-19T11:16:03.843Z,7.10
2022-10-19T11:23:22.283Z,9.00
2022-10-19T11:30:21.900Z,6.40
2022-10-19T11:45:04.071Z,6.30
2022-10-19T11:48:15.942Z,6.30
2022-10-19T11:51:27.035Z,8.00
2022-10-19T11:54:52.821Z,6.20
2022-10-19T11:58:12.037Z,5.70
2022-10-19T12:01:19.885Z,7.90
2022-10-19T12:04:29.970Z,6.00
2022-10-19T12:07:36.907Z,7.80
2022-10-19T12:10:43.929Z,6.10
2022-10-19T12:13:56.910Z,8.20
2022-10-19T12:17:04.101Z,6.30
2022-10-19T12:20:14.880Z,16.20
2022-10-19T12:23:27.889Z,8.00
2022-10-19T12:26:34.897Z,6.10
2022-10-19T12:29:41.945Z,8.20
2022-10-19T12:32:54.212Z,7.40
2022-10-19T12:36:01.977Z,7.70
2022-10-19T12:39:15.658Z,7.70
2022-10-19T12:42:27.040Z,6.70
2022-10-19T12:45:37.052Z,6.50
2022-10-19T12:48:52.039Z,8.70
2022-10-19T12:51:59.085Z,6.60
2022-10-19T12:55:06.082Z,8.10
2022-10-19T12:58:17.395Z,7.10
2022-10-19T13:01:25.061Z,11.90
2022-10-19T13:04:55.237Z,8.70
2022-10-19T13:08:02.045Z,7.60
2022-10-19T13:11:12.161Z,7.30
2022-10-19T13:14:25.121Z,8.40
2022-10-19T13:17:35.169Z,11.60
2022-10-19T13:20:49.050Z,8.20
2022-10-19T13:23:59.186Z,6.30
2022-10-19T13:27:09.119Z,8.40
2022-10-19T13:30:16.117Z,8.40
2022-10-19T13:33:27.161Z,8.90
2022-10-19T13:36:39.245Z,6.60
2022-10-19T13:39:49.335Z,8.20
2022-10-19T13:43:12.910Z,7.80
2022-10-19T13:46:31.306Z,6.10
2022-10-19T13:49:47.144Z,9.20
2022-10-19T13:53:08.182Z,11.70
2022-10-19T13:56:21.263Z,9.00
2022-10-19T13:59:28.499Z,8.40
2022-10-19T14:02:46.239Z,6.40
2022-10-19T14:05:56.206Z,7.60
2022-10-19T14:09:06.285Z,10.30
2022-10-19T14:12:14.218Z,7.20
2022-10-19T14:15:24.274Z,9.30
2022-10-19T14:18:36.063Z,7.70
2022-10-19T14:21:45.244Z,9.20
2022-10-19T14:24:53.256Z,11.70
2022-10-19T14:28:06.274Z,12.70
2022-10-19T14:31:13.275Z,6.50
2022-10-19T14:34:20.316Z,9.70
2022-10-19T14:37:30.264Z,8.00
2022-10-19T14:40:37.267Z,9.20
2022-10-19T14:43:46.244Z,13.50
2022-10-19T14:46:53.355Z,10.40
2022-10-19T14:50:03.411Z,8.40
2022-10-19T14:53:29.114Z,10.00
2022-10-19T14:56:39.346Z,9.10
2022-10-19T14:59:56.353Z,9.60
2022-10-19T15:03:16.367Z,11.40
2022-10-19T15:10:01.904Z,15.30
2022-10-19T15:13:09.385Z,10.70
2022-10-19T15:16:25.422Z,18.90
2022-10-19T15:19:57.473Z,15.20
2022-10-19T15:23:18.571Z,12.70
2022-10-19T15:26:43.589Z,16.20
2022-10-19T15:31:03.749Z,15.70
2022-10-19T15:34:59.886Z,16.20
2022-10-19T15:38:14.413Z,15.30
2022-10-19T15:48:43.449Z,22.10
2022-10-19T15:52:04.480Z,21.90
2022-10-19T15:55:11.467Z,17.60
2022-10-19T15:58:25.896Z,16.50
2022-10-19T16:01:40.544Z,14.80
2022-10-19T16:04:47.526Z,19.70
2022-10-19T16:07:54.483Z,16.40
2022-10-19T16:11:01.589Z,17.80
2022-10-19T16:14:08.558Z,18.90
2022-10-19T16:17:15.654Z,20.50
2022-10-19T16:20:22.540Z,23.30
2022-10-19T16:23:35.434Z,20.80
2022-10-19T16:26:45.547Z,18.90
2022-10-19T16:30:00.399Z,22.60
2022-10-19T17:32:15.973Z,42.80
2022-10-19T17:36:23.687Z,38.90
2022-10-19T17:39:30.793Z,51.30
2022-10-19T17:42:40.968Z,48.10
2022-10-19T17:45:57.240Z,50.40
2022-10-19T17:49:28.805Z,53.50
2022-10-19T18:00:18.202Z,58.70
2022-10-19T18:04:13.318Z,48.00
2022-10-19T18:11:39.678Z,49.30
2022-10-19T18:15:10.903Z,40.60
2022-10-19T18:26:27.293Z,46.30
2022-10-19T18:30:19.605Z,45.60
2022-10-19T18:34:11.274Z,40.90
2022-10-19T18:37:11.880Z,38.00
2022-10-19T18:40:24.991Z,40.70
2022-10-19T18:43:34.935Z,38.30
2022-10-19T18:46:53.332Z,39.50
2022-10-19T18:50:03.030Z,41.90
2022-10-19T18:53:10.914Z,37.90
2022-10-19T18:56:24.977Z,40.90
2022-10-19T18:59:32.050Z,38.30
2022-10-19T19:02:47.228Z,39.50
2022-10-19T19:05:54.950Z,38.50
2022-10-19T19:09:01.969Z,38.00
2022-10-19T21:27:52.799Z,10.20
2022-10-19T21:31:49.765Z,9.20
2022-10-19T21:35:39.223Z,10.10
2022-10-19T21:39:29.923Z,10.40
2022-10-19T21:43:19.124Z,7.50
2022-10-19T21:47:11.978Z,8.60
2022-10-19T21:51:08.058Z,11.60
2022-10-19T21:54:25.618Z,9.80
2022-10-19T21:58:15.898Z,8.10
2022-10-19T22:02:04.113Z,12.30
2022-10-19T22:05:52.275Z,9.10
2022-10-19T22:09:41.154Z,11.00
2022-10-19T22:13:24.908Z,8.80
2022-10-19T22:17:33.513Z,9.80
2022-10-19T22:21:27.560Z,9.90
2022-10-19T22:25:20.369Z,9.70
2022-10-19T22:29:15.140Z,10.10
2022-10-19T22:33:15.504Z,9.00
2022-10-19T22:37:03.554Z,9.80
2022-10-19T22:41:01.728Z,10.30
2022-10-19T22:48:31.772Z,7.70
2022-10-19T22:52:23.193Z,9.00
2022-10-19T22:56:11.291Z,8.70
2022-10-19T23:00:00.106Z,9.40
2022-10-19T23:07:33.088Z,8.60
2022-10-19T23:11:28.546Z,9.40
2022-10-19T23:15:20.535Z,7.90
2022-10-19T23:19:11.184Z,8.20
2022-10-19T23:23:03.802Z,9.10
2022-10-19T23:27:15.198Z,9.00
2022-10-19T23:31:22.644Z,7.70
2022-10-19T23:34:44.477Z,7.90
2022-10-19T23:37:52.979Z,8.70
2022-10-19T23:40:59.005Z,10.80
2022-10-19T23:44:03.950Z,7.40
2022-10-19T23:47:09.975Z,9.40
2022-10-19T23:50:15.006Z,8.30
2022-10-19T23:53:21.093Z,9.40
2022-10-19T23:56:26.034Z,8.90
2022-10-19T23:59:30.010Z,8.10
